General Aviation Weather

Text Reports

Enter one or more of the following location identifiers separated by a space:

Zip Code, Four-Character ICAO or Three-Character IATA airport codes.

METAR - Aviation Routine Weather Report
KPRG - Paris, Illinois
Updated at 11:55 AM GMT on December 28, 2014 (5:55 AM CST):
METAR KPRG 281155Z AUTO 33005KT 10SM OVC013 M01/M02 A3019 RMK AO2 70011 T10101024 10003 21011
TAF - Terminal Area Forecast
KPRG - Paris, Illinois
Updated at 11:55 AM GMT on December 28, 2014 (5:55 AM CST):
No TAF is currently available for this location.
Decoded:
No decoded TAF is available.
PIREP - Pilot Weather Report
KPRG - Paris, Illinois
Updated at 11:55 AM GMT on December 28, 2014 (5:55 AM CST):
No PIREP is currently available for this location.
AIRMET - Airmens Meteorological Information
KPRG - Paris, Illinois
Updated at 11:55 AM GMT on December 28, 2014 (5:55 AM CST):
No AIRMET is currently available for this location.
SIGMET - Significant Meteorological Information
KPRG - Paris, Illinois
Updated at 11:55 AM GMT on December 28, 2014 (5:55 AM CST):
No SIGMET is currently available for this location.
NOTAM - Notice to Airmen
KPRG - Paris, Illinois
Updated at 11:55 AM GMT on December 28, 2014 (5:55 AM CST):
No NOTAM is currently available for this location.
Forecast Area
KPRG - Paris, Illinois
Updated at 11:55 AM GMT on December 28, 2014 (5:55 AM CST):
No NOTAM is currently available for this location.
Aviation Weather Maps